Time;durP1;ratioP1;P1;durP2;ratioP2;P2;SDS_P1;SDS_P2;PMS_P1;PMS_P2;Temp;Humidity;BMP_temperature;BMP_pressure;BME280_temperature;BME280_humidity;BME280_pressure;Samples;Min_cycle;Max_cycle;Signal;HPM_P1;HPM_P2
2021/12/26 00:00:11;;;;;;;4.80;3.60;;;9.20;45.30;;;;;;5037939;28;20459;-81
2021/12/26 00:02:39;;;;;;;5.60;4.00;;;9.10;45.30;;;;;;5038745;28;20514;-81
2021/12/26 00:05:08;;;;;;;4.53;3.00;;;9.10;45.20;;;;;;5037813;28;20517;-81
2021/12/26 00:07:36;;;;;;;3.43;3.13;;;9.10;45.20;;;;;;5040633;28;20471;-81
2021/12/26 00:10:06;;;;;;;3.73;3.27;;;9.10;45.20;;;;;;5041642;28;20486;-82
2021/12/26 00:12:34;;;;;;;4.50;3.40;;;9.10;45.20;;;;;;5041587;28;20440;-81
2021/12/26 00:15:02;;;;;;;3.97;3.37;;;9.00;45.20;;;;;;5041395;28;20455;-81
2021/12/26 00:17:30;;;;;;;4.70;3.70;;;9.00;45.10;;;;;;5040737;28;20540;-81
2021/12/26 00:19:58;;;;;;;3.43;3.13;;;9.10;45.30;;;;;;5040512;28;20439;-81
2021/12/26 00:22:26;;;;;;;3.60;3.30;;;9.00;45.10;;;;;;5041369;28;20456;-82
2021/12/26 00:24:54;;;;;;;3.90;3.50;;;9.10;45.10;;;;;;5040101;28;20491;-81
2021/12/26 00:27:25;;;;;;;4.83;3.27;;;9.00;45.00;;;;;;5040564;28;20458;-81
2021/12/26 00:29:53;;;;;;;3.73;3.30;;;9.00;45.10;;;;;;5040650;28;20518;-80
2021/12/26 00:32:21;;;;;;;4.70;3.27;;;9.00;45.10;;;;;;5040523;28;20450;-81
2021/12/26 00:34:50;;;;;;;6.47;3.93;;;9.00;45.10;;;;;;5040262;28;20499;-80
2021/12/26 00:37:18;;;;;;;5.17;3.90;;;9.00;45.60;;;;;;5040352;28;20482;-81
2021/12/26 00:39:46;;;;;;;5.17;2.90;;;9.00;44.90;;;;;;5043493;28;20470;-81
2021/12/26 00:42:14;;;;;;;5.50;3.40;;;8.90;44.90;;;;;;5040446;28;20492;-81
2021/12/26 00:44:44;;;;;;;5.27;3.30;;;8.90;44.80;;;;;;5040701;28;20463;-81
2021/12/26 00:47:13;;;;;;;3.50;3.20;;;8.90;44.90;;;;;;5040267;28;20529;-82
2021/12/26 00:49:41;;;;;;;5.30;3.53;;;8.90;45.00;;;;;;5039570;28;20516;-82
2021/12/26 00:52:09;;;;;;;3.33;3.03;;;8.90;45.00;;;;;;5039733;28;20485;-84
2021/12/26 00:54:37;;;;;;;6.83;3.60;;;8.80;45.10;;;;;;5039062;28;20587;-83
2021/12/26 00:57:05;;;;;;;3.73;3.27;;;8.80;45.00;;;;;;5035711;28;20486;-81
2021/12/26 00:59:33;;;;;;;3.87;3.27;;;8.90;45.10;;;;;;5033964;28;20514;-81
2021/12/26 01:02:03;;;;;;;3.37;2.70;;;8.80;45.10;;;;;;5029953;28;20452;-81
2021/12/26 01:04:31;;;;;;;3.37;3.07;;;8.90;45.30;;;;;;5028414;28;20530;-81
2021/12/26 01:06:59;;;;;;;4.40;3.13;;;8.90;45.00;;;;;;5029885;28;20438;-81
2021/12/26 01:09:29;;;;;;;4.10;3.00;;;8.90;45.00;;;;;;5023175;28;20491;-81
2021/12/26 01:12:00;;;;;;;5.93;3.40;;;8.80;44.90;;;;;;5027465;28;20484;-81
2021/12/26 01:14:31;;;;;;;5.80;3.60;;;8.80;45.60;;;;;;5035596;28;20557;-82
2021/12/26 01:17:05;;;;;;;4.43;3.23;;;8.80;45.00;;;;;;5032596;28;20531;-81
2021/12/26 01:19:43;;;;;;;4.63;3.40;;;8.80;44.90;;;;;;5027587;28;20538;-81
2021/12/26 01:22:12;;;;;;;4.73;2.97;;;8.70;45.00;;;;;;5027790;28;20499;-81
2021/12/26 01:24:40;;;;;;;3.73;3.30;;;8.70;44.90;;;;;;5026341;28;20456;-81
2021/12/26 01:27:08;;;;;;;5.40;4.07;;;8.70;45.00;;;;;;5029198;28;20527;-81
2021/12/26 01:29:36;;;;;;;4.70;3.63;;;8.70;45.00;;;;;;5031068;28;20468;-81
2021/12/26 01:32:05;;;;;;;3.63;3.17;;;8.70;45.10;;;;;;5032337;28;20524;-81
2021/12/26 01:34:33;;;;;;;4.10;3.17;;;8.70;45.00;;;;;;5030831;28;20498;-80
2021/12/26 01:37:02;;;;;;;3.20;2.90;;;8.70;44.90;;;;;;5030271;28;20467;-81
2021/12/26 01:39:29;;;;;;;4.17;3.00;;;8.70;45.60;;;;;;5027479;28;20531;-81
2021/12/26 01:42:01;;;;;;;4.70;3.10;;;8.60;44.90;;;;;;5029933;28;20464;-81
2021/12/26 01:44:29;;;;;;;6.50;3.43;;;8.70;45.10;;;;;;5025693;28;20449;-80
2021/12/26 01:46:57;;;;;;;3.10;2.80;;;8.70;45.20;;;;;;5026728;28;20523;-81
2021/12/26 01:49:27;;;;;;;3.03;2.83;;;8.70;45.00;;;;;;5027277;28;20520;-81
2021/12/26 01:51:56;;;;;;;4.80;3.40;;;8.60;44.80;;;;;;5034078;28;20538;-81
2021/12/26 01:54:32;;;;;;;4.07;2.80;;;8.60;44.90;;;;;;5028429;28;20484;-81
2021/12/26 01:57:01;;;;;;;4.50;3.20;;;8.60;45.00;;;;;;5026485;28;20515;-81
2021/12/26 01:59:29;;;;;;;4.57;2.80;;;8.60;44.80;;;;;;5025144;28;20480;-81
2021/12/26 02:01:57;;;;;;;4.20;2.80;;;8.60;44.90;;;;;;5026828;28;20438;-80
2021/12/26 02:04:28;;;;;;;3.93;3.00;;;8.60;44.90;;;;;;5026471;28;20468;-81
2021/12/26 02:06:55;;;;;;;5.30;3.40;;;8.60;45.00;;;;;;5027264;28;20467;-81
2021/12/26 02:09:25;;;;;;;3.70;3.10;;;8.60;44.90;;;;;;5029107;28;20490;-79
2021/12/26 02:11:53;;;;;;;5.60;3.30;;;8.50;44.70;;;;;;5034324;28;20531;-81
2021/12/26 02:14:20;;;;;;;5.57;2.80;;;8.50;44.80;;;;;;5028789;28;20543;-81
2021/12/26 02:16:48;;;;;;;5.50;3.70;;;8.50;44.90;;;;;;5027287;28;20487;-81
2021/12/26 02:19:17;;;;;;;4.27;2.97;;;8.50;44.90;;;;;;5026971;28;20917;-80
2021/12/26 02:22:05;;;;;;;3.30;2.67;;;8.50;44.90;;;;;;5026472;28;20907;-80
2021/12/26 02:24:56;;;;;;;6.07;3.27;;;8.40;44.70;;;;;;5026969;28;20474;-80
2021/12/26 02:27:31;;;;;;;3.10;2.80;;;8.40;44.90;;;;;;5027501;28;20478;-80
2021/12/26 02:30:00;;;;;;;4.23;3.10;;;8.40;44.80;;;;;;5030298;28;20427;-80
2021/12/26 02:32:29;;;;;;;19.17;3.30;;;8.50;44.90;;;;;;5027596;28;20504;-80
2021/12/26 02:34:57;;;;;;;2.90;2.60;;;8.40;44.70;;;;;;5027010;28;20454;-80
2021/12/26 02:37:27;;;;;;;3.10;2.80;;;8.40;44.70;;;;;;5025625;28;20468;-80
2021/12/26 02:39:54;;;;;;;3.47;3.17;;;8.40;44.60;;;;;;5027386;28;20559;-80
2021/12/26 02:42:23;;;;;;;4.40;3.10;;;8.40;44.80;;;;;;5024294;28;20524;-81
2021/12/26 02:44:51;;;;;;;5.60;2.90;;;8.30;44.60;;;;;;5033491;28;20535;-80
2021/12/26 02:47:31;;;;;;;4.77;3.00;;;8.30;44.60;;;;;;5034947;28;20435;-81
2021/12/26 02:50:00;;;;;;;4.80;3.13;;;8.30;44.70;;;;;;5032428;28;20432;-81
2021/12/26 02:52:30;;;;;;;3.83;3.00;;;8.30;44.50;;;;;;5034282;28;20546;-81
2021/12/26 02:54:59;;;;;;;3.30;2.83;;;8.30;44.80;;;;;;5034447;28;20531;-81
2021/12/26 02:57:27;;;;;;;3.30;2.87;;;8.30;45.30;;;;;;5033440;28;20542;-81
2021/12/26 02:59:55;;;;;;;7.57;3.13;;;8.30;44.60;;;;;;5033236;28;20483;-81
2021/12/26 03:02:23;;;;;;;10.10;3.33;;;8.30;44.60;;;;;;5032196;28;20471;-81
2021/12/26 03:04:51;;;;;;;3.60;2.70;;;8.30;44.80;;;;;;5026217;28;20475;-81
2021/12/26 03:07:19;;;;;;;4.03;3.30;;;8.20;44.60;;;;;;5030237;28;20468;-81
2021/12/26 03:09:50;;;;;;;3.63;2.97;;;8.20;44.60;;;;;;5033620;28;20458;-81
2021/12/26 03:12:17;;;;;;;2.97;2.77;;;8.20;44.60;;;;;;5035888;28;20522;-81
2021/12/26 03:14:45;;;;;;;4.30;3.20;;;8.20;44.60;;;;;;5035764;28;20542;-81
2021/12/26 03:17:14;;;;;;;4.73;3.17;;;8.20;44.60;;;;;;5035625;28;20439;-81
2021/12/26 03:19:42;;;;;;;4.70;3.13;;;8.20;44.50;;;;;;5034616;28;20479;-81
2021/12/26 03:22:10;;;;;;;4.20;3.37;;;8.20;44.50;;;;;;5035203;28;20444;-81
2021/12/26 03:24:39;;;;;;;2.93;2.73;;;8.20;44.60;;;;;;5035844;28;20550;-81
2021/12/26 03:27:08;;;;;;;6.70;3.10;;;8.20;44.50;;;;;;5036063;28;20511;-81
2021/12/26 03:29:36;;;;;;;6.63;3.00;;;8.20;44.40;;;;;;5035989;28;20427;-82
2021/12/26 03:32:05;;;;;;;3.10;2.63;;;8.20;44.30;;;;;;5035516;28;20514;-81
2021/12/26 03:34:33;;;;;;;4.77;2.97;;;8.10;44.40;;;;;;5038402;28;20677;-81
2021/12/26 03:37:01;;;;;;;4.60;3.07;;;8.10;44.40;;;;;;5035648;28;20463;-81
2021/12/26 03:39:29;;;;;;;3.87;2.90;;;8.10;44.30;;;;;;5034856;28;20558;-81
2021/12/26 03:41:58;;;;;;;4.03;3.30;;;8.10;44.50;;;;;;5035421;28;20515;-81
2021/12/26 03:44:27;;;;;;;4.03;3.10;;;8.10;44.30;;;;;;5038960;28;20467;-81
2021/12/26 03:46:55;;;;;;;4.57;2.90;;;8.10;44.30;;;;;;5039776;28;20538;-81
2021/12/26 03:49:23;;;;;;;5.30;3.37;;;8.10;44.30;;;;;;5039074;28;20447;-81
2021/12/26 03:51:51;;;;;;;3.97;3.13;;;8.10;44.30;;;;;;5038741;28;20522;-81
2021/12/26 03:54:19;;;;;;;3.13;2.80;;;8.10;44.30;;;;;;5041883;28;20526;-81
2021/12/26 03:56:47;;;;;;;4.77;2.80;;;8.10;44.30;;;;;;5038845;28;20534;-81
2021/12/26 03:59:14;;;;;;;4.33;3.07;;;8.00;44.20;;;;;;5038330;28;20535;-81
2021/12/26 04:01:44;;;;;;;4.93;3.03;;;8.00;44.40;;;;;;5038369;28;20457;-81
2021/12/26 04:04:12;;;;;;;3.37;2.80;;;8.00;44.30;;;;;;5038515;28;20493;-81
2021/12/26 04:06:41;;;;;;;3.50;2.67;;;8.00;44.30;;;;;;5038131;28;20443;-81
2021/12/26 04:09:08;;;;;;;2.43;2.23;;;8.00;44.30;;;;;;5039948;28;20451;-81
2021/12/26 04:11:39;;;;;;;2.97;2.67;;;8.00;44.10;;;;;;5037980;28;20514;-81
2021/12/26 04:14:07;;;;;;;3.40;3.00;;;7.90;44.40;;;;;;5038214;28;20543;-81
2021/12/26 04:16:35;;;;;;;2.50;2.33;;;8.00;44.30;;;;;;5038173;28;20447;-81
2021/12/26 04:19:04;;;;;;;2.87;2.67;;;8.00;44.30;;;;;;5037947;28;20527;-81
2021/12/26 04:21:32;;;;;;;2.40;2.20;;;8.00;44.30;;;;;;5038060;28;20566;-81
2021/12/26 04:24:00;;;;;;;2.60;2.40;;;7.90;44.20;;;;;;5038151;28;20554;-81
2021/12/26 04:26:30;;;;;;;4.93;3.03;;;7.90;44.20;;;;;;5040528;28;20545;-81
2021/12/26 04:28:59;;;;;;;3.97;3.30;;;7.90;44.20;;;;;;5037964;28;20494;-81
2021/12/26 04:31:27;;;;;;;3.10;2.80;;;7.90;44.20;;;;;;5038211;28;20503;-81
2021/12/26 04:33:55;;;;;;;3.77;3.27;;;7.90;44.20;;;;;;5037506;28;20451;-81
2021/12/26 04:36:24;;;;;;;4.50;3.13;;;7.90;44.20;;;;;;5037626;28;20526;-80
2021/12/26 04:38:52;;;;;;;6.00;2.90;;;7.90;44.20;;;;;;5037330;28;20506;-81
2021/12/26 04:41:20;;;;;;;4.40;2.93;;;7.90;44.20;;;;;;5037713;28;20472;-81
2021/12/26 04:43:48;;;;;;;3.50;2.70;;;7.90;44.20;;;;;;5037600;28;20479;-80
2021/12/26 04:46:17;;;;;;;2.60;2.40;;;7.90;44.20;;;;;;5035621;28;20451;-81
2021/12/26 04:48:45;;;;;;;5.37;3.17;;;7.90;44.20;;;;;;5039463;28;21001;-81
2021/12/26 04:51:14;;;;;;;3.77;2.60;;;7.90;44.20;;;;;;5039546;28;20431;-81
2021/12/26 04:53:43;;;;;;;3.67;3.20;;;7.90;44.10;;;;;;5038884;28;20475;-81
2021/12/26 04:56:11;;;;;;;3.93;2.80;;;7.80;44.20;;;;;;5039054;28;20522;-81
2021/12/26 04:58:39;;;;;;;3.30;3.00;;;7.80;44.10;;;;;;5039276;28;20526;-81
2021/12/26 05:01:07;;;;;;;2.87;2.67;;;7.90;44.10;;;;;;5035602;28;20543;-81
2021/12/26 05:03:36;;;;;;;4.13;2.60;;;7.80;44.00;;;;;;5038030;28;20463;-81
2021/12/26 05:06:04;;;;;;;3.13;2.60;;;7.80;44.00;;;;;;5036142;28;20483;-81
2021/12/26 05:08:32;;;;;;;3.13;2.93;;;7.80;44.10;;;;;;5038182;28;20541;-81
2021/12/26 05:11:01;;;;;;;2.80;2.50;;;7.80;44.10;;;;;;5038429;28;20486;-81
2021/12/26 05:13:30;;;;;;;3.57;2.97;;;7.80;44.10;;;;;;5038623;28;20520;-81
2021/12/26 05:15:57;;;;;;;2.77;2.50;;;7.80;44.10;;;;;;5037907;28;20449;-81
2021/12/26 05:18:26;;;;;;;2.80;2.60;;;7.80;44.10;;;;;;5038005;28;20530;-81
2021/12/26 05:20:56;;;;;;;3.70;2.57;;;7.80;44.10;;;;;;5040886;28;20502;-81
2021/12/26 05:23:24;;;;;;;6.00;2.90;;;7.70;44.10;;;;;;5038652;28;20439;-81
2021/12/26 05:25:52;;;;;;;3.33;3.00;;;7.70;44.00;;;;;;5038431;28;20470;-81
2021/12/26 05:28:21;;;;;;;3.70;2.80;;;7.70;44.10;;;;;;5039093;28;20478;-81
2021/12/26 05:30:48;;;;;;;3.70;2.83;;;7.80;44.10;;;;;;5038057;28;20527;-81
2021/12/26 05:33:17;;;;;;;3.30;3.00;;;7.70;44.00;;;;;;5038067;28;20444;-81
2021/12/26 05:35:45;;;;;;;3.83;2.80;;;7.70;43.90;;;;;;5038406;28;20474;-81
2021/12/26 05:38:13;;;;;;;3.70;2.87;;;7.70;44.10;;;;;;5040248;28;20542;-81
2021/12/26 05:40:41;;;;;;;3.77;3.07;;;7.70;44.20;;;;;;5038093;28;20471;-81
2021/12/26 05:43:09;;;;;;;3.00;2.60;;;7.70;44.00;;;;;;5037804;28;20544;-81
2021/12/26 05:45:39;;;;;;;3.00;2.73;;;7.60;43.90;;;;;;5038087;28;20447;-81
2021/12/26 05:48:06;;;;;;;4.50;2.67;;;7.60;44.00;;;;;;5037702;28;20471;-81
2021/12/26 05:50:35;;;;;;;3.67;2.70;;;7.60;44.10;;;;;;5038153;28;20538;-81
2021/12/26 05:53:02;;;;;;;2.90;2.57;;;7.60;44.00;;;;;;5038650;28;20436;-81
2021/12/26 05:55:31;;;;;;;3.00;2.80;;;7.60;44.00;;;;;;5040398;28;20489;-81
2021/12/26 05:57:59;;;;;;;3.97;3.07;;;7.60;44.00;;;;;;5037658;28;20800;-81
2021/12/26 06:00:27;;;;;;;4.33;3.17;;;7.60;44.00;;;;;;5037194;28;20478;-81
2021/12/26 06:02:57;;;;;;;4.07;2.90;;;7.60;44.00;;;;;;5038167;28;20436;-81
2021/12/26 06:05:25;;;;;;;2.80;2.60;;;7.60;44.00;;;;;;5037700;28;20452;-81
2021/12/26 06:07:53;;;;;;;3.70;2.47;;;7.60;43.90;;;;;;5037365;28;20535;-81
2021/12/26 06:10:21;;;;;;;3.40;2.67;;;7.60;44.00;;;;;;5038066;28;20887;-81
2021/12/26 06:12:48;;;;;;;3.30;2.97;;;7.60;44.00;;;;;;5037338;28;20451;-81
2021/12/26 06:15:16;;;;;;;3.60;2.83;;;7.60;44.00;;;;;;5040819;28;20467;-81
2021/12/26 06:17:44;;;;;;;3.33;2.60;;;7.60;44.00;;;;;;5037701;28;20456;-81
2021/12/26 06:20:14;;;;;;;3.53;2.80;;;7.60;43.90;;;;;;5037367;28;20432;-81
2021/12/26 06:22:43;;;;;;;3.03;2.60;;;7.50;43.80;;;;;;5037290;28;20471;-81
2021/12/26 06:25:11;;;;;;;4.30;3.20;;;7.50;43.80;;;;;;5037406;28;20459;-81
2021/12/26 06:27:39;;;;;;;2.90;2.70;;;7.60;43.90;;;;;;5037090;28;20534;-81
2021/12/26 06:30:07;;;;;;;2.73;2.53;;;7.50;44.30;;;;;;5037599;28;20467;-81
2021/12/26 06:32:35;;;;;;;3.63;2.47;;;7.50;43.70;;;;;;5040095;28;20539;-81
2021/12/26 06:35:04;;;;;;;4.47;3.27;;;7.50;43.90;;;;;;5037285;28;20973;-81
2021/12/26 06:37:34;;;;;;;5.27;2.53;;;7.50;43.80;;;;;;5036978;28;20479;-81
2021/12/26 06:40:01;;;;;;;4.90;2.87;;;7.50;43.80;;;;;;5037450;28;20501;-81
2021/12/26 06:42:31;;;;;;;2.60;2.40;;;7.50;43.90;;;;;;5039821;28;20483;-81
2021/12/26 06:45:00;;;;;;;2.50;2.30;;;7.50;43.80;;;;;;5040125;28;20538;-81
2021/12/26 06:47:27;;;;;;;3.10;2.90;;;7.50;44.40;;;;;;5039727;28;20490;-81
2021/12/26 06:49:55;;;;;;;4.00;3.00;;;7.40;43.60;;;;;;5039828;28;20451;-81
2021/12/26 06:52:23;;;;;;;3.07;2.20;;;7.40;43.60;;;;;;5036868;28;20527;-81
2021/12/26 06:54:52;;;;;;;2.60;2.40;;;7.40;43.70;;;;;;5036904;28;20620;-81
2021/12/26 06:57:20;;;;;;;3.57;2.77;;;7.40;43.70;;;;;;5037433;28;20474;-81
2021/12/26 06:59:47;;;;;;;4.37;2.87;;;7.40;43.60;;;;;;5036484;28;20428;-81
2021/12/26 07:02:16;;;;;;;3.40;2.90;;;7.40;43.60;;;;;;5037357;28;20510;-81
2021/12/26 07:04:44;;;;;;;6.40;2.90;;;7.40;43.60;;;;;;5040083;28;20475;-81
2021/12/26 07:07:11;;;;;;;5.80;3.47;;;7.40;43.70;;;;;;5036813;28;20515;-81
2021/12/26 07:09:39;;;;;;;3.00;2.80;;;7.40;43.60;;;;;;5037278;28;20554;-81
2021/12/26 07:12:10;;;;;;;4.13;3.10;;;7.40;43.70;;;;;;5036835;28;20454;-81
2021/12/26 07:14:41;;;;;;;3.67;3.17;;;7.40;43.60;;;;;;5036783;28;20464;-81
2021/12/26 07:17:10;;;;;;;2.87;2.53;;;7.40;43.80;;;;;;5036516;28;20436;-81
2021/12/26 07:19:39;;;;;;;3.90;2.43;;;7.40;43.80;;;;;;5036613;28;20519;-81
2021/12/26 07:22:07;;;;;;;4.00;2.67;;;7.30;43.70;;;;;;5036700;28;20467;-81
2021/12/26 07:24:36;;;;;;;4.43;2.53;;;7.30;43.70;;;;;;5036322;28;20483;-81
2021/12/26 07:27:05;;;;;;;4.67;2.70;;;7.30;43.80;;;;;;5037007;28;20544;-81
2021/12/26 07:29:34;;;;;;;3.63;3.23;;;7.30;43.70;;;;;;5036824;28;20824;-81
2021/12/26 07:32:02;;;;;;;2.80;2.50;;;7.30;43.80;;;;;;5036524;28;20458;-81
2021/12/26 07:34:30;;;;;;;4.07;2.50;;;7.30;43.70;;;;;;5036928;28;20463;-81
2021/12/26 07:36:58;;;;;;;5.40;3.20;;;7.30;43.70;;;;;;5036458;28;20436;-81
2021/12/26 07:39:25;;;;;;;2.37;2.17;;;7.30;43.60;;;;;;5040170;28;20467;-81
2021/12/26 07:41:53;;;;;;;5.20;3.50;;;7.30;43.60;;;;;;5036731;28;20558;-81
2021/12/26 07:44:21;;;;;;;3.00;2.43;;;7.30;43.60;;;;;;5036883;28;20550;-81
2021/12/26 07:46:52;;;;;;;5.47;2.90;;;7.30;43.50;;;;;;5036301;28;20466;-81
2021/12/26 07:49:20;;;;;;;3.40;2.63;;;7.30;43.60;;;;;;5036954;28;20424;-81
2021/12/26 07:51:49;;;;;;;3.67;2.90;;;7.30;43.60;;;;;;5036630;28;20416;-81
2021/12/26 07:54:17;;;;;;;5.00;3.20;;;7.30;43.50;;;;;;5036713;28;21005;-81
2021/12/26 07:56:45;;;;;;;4.70;3.20;;;7.30;43.50;;;;;;5039262;28;20519;-81
2021/12/26 07:59:12;;;;;;;2.87;2.57;;;7.30;43.40;;;;;;5036135;28;20499;-81
2021/12/26 08:01:41;;;;;;;3.57;2.83;;;7.30;43.70;;;;;;5036516;28;20943;-81
2021/12/26 08:04:10;;;;;;;3.83;3.07;;;7.30;43.60;;;;;;5036270;28;20463;-81
2021/12/26 08:06:39;;;;;;;2.80;2.60;;;7.30;43.70;;;;;;5036571;28;20989;-81
2021/12/26 08:09:07;;;;;;;3.20;2.70;;;7.30;43.60;;;;;;5035863;28;20507;-81
2021/12/26 08:11:35;;;;;;;4.13;2.90;;;7.30;43.60;;;;;;5035730;28;20528;-81
2021/12/26 08:14:03;;;;;;;3.93;2.90;;;7.30;43.60;;;;;;5035907;28;20559;-81
2021/12/26 08:16:31;;;;;;;3.03;2.73;;;7.30;43.70;;;;;;5038660;28;20519;-81
2021/12/26 08:18:59;;;;;;;4.17;2.50;;;7.30;43.70;;;;;;5036154;28;20447;-81
2021/12/26 08:21:28;;;;;;;4.73;3.47;;;7.40;43.70;;;;;;5036240;28;20530;-81
2021/12/26 08:23:56;;;;;;;4.87;2.97;;;7.40;43.60;;;;;;5035863;28;20471;-81
2021/12/26 08:26:24;;;;;;;3.83;2.97;;;7.50;43.60;;;;;;5036215;28;20526;-81
2021/12/26 08:28:52;;;;;;;3.90;2.90;;;7.40;43.50;;;;;;5036438;28;20428;-81
2021/12/26 08:31:22;;;;;;;3.63;2.63;;;7.40;43.60;;;;;;5039385;28;20846;-81
2021/12/26 08:33:49;;;;;;;2.70;2.50;;;7.50;43.70;;;;;;5042679;28;20479;-81
2021/12/26 08:36:19;;;;;;;2.93;2.60;;;7.50;43.80;;;;;;5038023;28;20510;-81
2021/12/26 08:38:49;;;;;;;3.37;2.90;;;7.50;43.80;;;;;;5038805;28;21037;-81
2021/12/26 08:41:16;;;;;;;3.83;2.70;;;7.60;43.80;;;;;;5039840;28;20432;-81
2021/12/26 08:43:45;;;;;;;3.20;2.90;;;7.60;43.90;;;;;;5039029;28;20494;-81
2021/12/26 08:46:13;;;;;;;3.77;2.60;;;7.70;44.00;;;;;;5039498;28;20453;-81
2021/12/26 08:48:41;;;;;;;3.00;2.80;;;7.90;44.20;;;;;;5038531;28;20481;-81
2021/12/26 08:51:09;;;;;;;3.90;2.60;;;8.00;44.30;;;;;;5041405;28;20526;-81
2021/12/26 08:53:36;;;;;;;3.43;3.00;;;8.10;44.40;;;;;;5039073;28;20487;-81
2021/12/26 08:56:06;;;;;;;4.73;2.90;;;8.30;44.60;;;;;;5032516;28;20536;-81
2021/12/26 08:58:34;;;;;;;4.23;2.90;;;8.40;44.80;;;;;;5031959;28;20532;-81
2021/12/26 09:01:02;;;;;;;3.60;3.30;;;8.60;44.80;;;;;;5031271;28;20440;-81
2021/12/26 09:03:30;;;;;;;3.03;2.57;;;8.80;45.00;;;;;;5030622;28;20458;-81
2021/12/26 09:05:58;;;;;;;2.90;2.60;;;8.90;44.90;;;;;;5028915;28;20436;-81
2021/12/26 09:08:26;;;;;;;3.27;2.97;;;9.10;45.10;;;;;;5035951;28;20448;-81
2021/12/26 09:10:55;;;;;;;3.97;3.30;;;9.20;45.10;;;;;;5031031;28;20546;-81
2021/12/26 09:13:24;;;;;;;3.00;2.80;;;9.30;45.40;;;;;;5028575;28;20520;-81
2021/12/26 09:15:52;;;;;;;3.10;2.80;;;9.40;45.60;;;;;;5027065;28;20938;-81
2021/12/26 09:18:23;;;;;;;3.20;3.00;;;9.40;45.70;;;;;;5028974;28;20428;-81
2021/12/26 09:20:50;;;;;;;4.47;3.03;;;9.40;45.80;;;;;;5030455;28;20523;-81
2021/12/26 09:23:18;;;;;;;3.60;3.20;;;9.50;46.00;;;;;;5028337;28;20563;-81
2021/12/26 09:25:46;;;;;;;3.30;3.00;;;9.50;46.00;;;;;;5033104;28;20458;-81
2021/12/26 09:28:14;;;;;;;5.33;3.33;;;9.50;46.20;;;;;;5038343;28;20467;-81
2021/12/26 09:30:43;;;;;;;3.30;2.90;;;9.60;46.30;;;;;;5031878;28;20471;-81
2021/12/26 09:33:11;;;;;;;3.20;2.90;;;9.70;46.40;;;;;;5029187;28;20444;-81
2021/12/26 09:35:39;;;;;;;2.50;2.40;;;9.70;46.50;;;;;;5030238;28;20427;-81
2021/12/26 09:38:07;;;;;;;6.77;3.13;;;9.70;46.50;;;;;;5029116;28;20440;-81
2021/12/26 09:40:35;;;;;;;2.97;2.73;;;9.70;46.60;;;;;;5026416;28;20539;-81
2021/12/26 09:43:03;;;;;;;3.30;3.10;;;9.70;46.70;;;;;;5033562;28;20543;-81
2021/12/26 09:45:31;;;;;;;3.23;2.93;;;9.80;46.80;;;;;;5030557;28;20479;-81
2021/12/26 09:48:00;;;;;;;3.30;3.00;;;9.80;46.80;;;;;;5032189;28;20432;-81
2021/12/26 09:50:28;;;;;;;3.37;3.10;;;9.80;46.90;;;;;;5027958;28;20464;-81
2021/12/26 09:52:56;;;;;;;2.93;2.67;;;9.90;47.00;;;;;;5037508;28;20446;-81
2021/12/26 09:55:27;;;;;;;3.27;2.60;;;9.90;47.10;;;;;;5034983;28;20482;-81
2021/12/26 09:57:54;;;;;;;3.03;2.73;;;9.90;47.10;;;;;;5030716;28;20518;-81
2021/12/26 10:00:25;;;;;;;4.60;3.10;;;10.10;46.40;;;;;;5033219;28;20459;-81
2021/12/26 10:03:14;;;;;;;2.73;2.53;;;10.20;46.50;;;;;;5028783;28;20437;-82
2021/12/26 10:06:12;;;;;;;4.10;3.20;;;10.40;46.60;;;;;;5027642;28;20444;-81
2021/12/26 10:08:59;;;;;;;3.27;2.97;;;10.60;46.80;;;;;;4995781;28;20490;-82
2021/12/26 10:11:28;;;;;;;3.53;2.90;;;10.90;47.00;;;;;;5027262;28;20458;-81
2021/12/26 10:13:57;;;;;;;2.97;2.70;;;11.00;47.20;;;;;;5025867;28;20531;-82
2021/12/26 10:16:27;;;;;;;7.50;3.27;;;11.30;47.30;;;;;;5030444;28;20482;-82
2021/12/26 10:18:56;;;;;;;3.47;3.10;;;11.40;47.40;;;;;;5030915;28;20522;-82
2021/12/26 10:21:42;;;;;;;2.47;2.30;;;11.60;47.60;;;;;;5024626;28;20519;-82
2021/12/26 10:24:16;;;;;;;2.87;2.67;;;11.80;47.90;;;;;;5026619;28;20508;-82
2021/12/26 10:26:46;;;;;;;3.03;2.80;;;12.00;48.10;;;;;;5026312;28;20995;-82
2021/12/26 10:29:19;;;;;;;3.00;2.70;;;12.20;48.30;;;;;;5024531;28;20515;-82
2021/12/26 10:31:56;;;;;;;3.03;2.73;;;12.40;48.60;;;;;;5026671;28;20535;-82
2021/12/26 10:34:37;;;;;;;3.17;2.43;;;12.60;48.80;;;;;;5030231;28;20541;-82
2021/12/26 10:37:08;;;;;;;3.17;2.90;;;12.70;49.00;;;;;;5026041;28;20490;-82
2021/12/26 10:39:38;;;;;;;3.67;2.97;;;12.90;49.20;;;;;;5024765;28;20455;-82
2021/12/26 10:42:08;;;;;;;3.53;3.20;;;13.10;49.40;;;;;;5025465;28;20463;-82
2021/12/26 10:44:39;;;;;;;3.03;2.73;;;13.30;49.60;;;;;;5023960;28;20468;-82
2021/12/26 10:47:09;;;;;;;3.37;3.07;;;13.50;49.80;;;;;;5026118;28;20515;-81
2021/12/26 10:49:41;;;;;;;3.93;2.83;;;13.70;49.90;;;;;;5030869;28;20464;-81
2021/12/26 10:52:11;;;;;;;3.20;2.90;;;13.90;50.20;;;;;;5027324;28;20438;-81
2021/12/26 10:54:41;;;;;;;2.93;2.63;;;14.00;50.20;;;;;;5035284;28;20561;-82
2021/12/26 10:57:19;;;;;;;3.60;3.20;;;14.30;50.40;;;;;;5034077;28;20478;-81
2021/12/26 11:00:03;;;;;;;3.20;2.80;;;14.40;50.50;;;;;;5026233;28;20455;-81
2021/12/26 11:02:31;;;;;;;3.30;2.93;;;14.60;50.60;;;;;;5013983;28;20476;-81
2021/12/26 11:05:04;;;;;;;3.53;3.23;;;14.80;50.80;;;;;;5015917;28;20543;-82
2021/12/26 11:07:42;;;;;;;2.87;2.67;;;15.00;50.90;;;;;;5033783;28;20455;-81
2021/12/26 11:10:12;;;;;;;3.53;3.03;;;15.20;50.90;;;;;;5027951;28;20447;-81
2021/12/26 11:12:43;;;;;;;3.23;2.93;;;15.40;51.10;;;;;;5035337;28;20436;-81
2021/12/26 11:15:11;;;;;;;3.10;2.90;;;15.50;51.10;;;;;;5035184;28;20482;-81
2021/12/26 11:17:44;;;;;;;3.23;2.90;;;15.70;51.20;;;;;;5033569;28;20577;-81
2021/12/26 11:20:32;;;;;;;3.37;3.07;;;15.80;51.20;;;;;;5022523;28;20470;-81
2021/12/26 11:23:00;;;;;;;3.83;3.23;;;16.00;51.20;;;;;;5034828;28;20858;-81
2021/12/26 11:25:28;;;;;;;3.00;2.80;;;16.10;51.10;;;;;;5031740;28;20476;-82
2021/12/26 11:27:56;;;;;;;2.80;2.60;;;16.20;51.60;;;;;;5027657;28;20527;-81
2021/12/26 11:30:23;;;;;;;2.93;2.70;;;16.40;51.00;;;;;;5026207;28;20442;-81
2021/12/26 11:32:51;;;;;;;3.70;3.30;;;16.50;51.00;;;;;;5024478;28;20504;-80
2021/12/26 11:35:19;;;;;;;3.40;3.10;;;16.60;50.90;;;;;;5035323;28;20479;-81
2021/12/26 11:37:48;;;;;;;3.87;2.97;;;16.70;50.90;;;;;;5034473;28;20534;-80
2021/12/26 11:40:16;;;;;;;5.10;3.13;;;16.90;51.00;;;;;;5034238;28;20506;-81
2021/12/26 11:43:15;;;;;;;3.07;2.87;;;17.00;50.90;;;;;;5033740;28;20466;-81
2021/12/26 11:45:46;;;;;;;3.20;2.90;;;17.10;50.70;;;;;;5017855;28;20515;-81
2021/12/26 11:48:40;;;;;;;3.33;3.03;;;17.20;50.90;;;;;;5034512;28;20493;-81
2021/12/26 11:51:29;;;;;;;3.40;3.03;;;17.40;50.90;;;;;;5014954;28;20443;-80
2021/12/26 11:54:09;;;;;;;2.90;2.70;;;17.60;50.90;;;;;;5035261;28;20467;-80
2021/12/26 11:56:42;;;;;;;3.27;3.00;;;17.70;50.60;;;;;;5030166;28;20538;-79
2021/12/26 11:59:19;;;;;;;3.63;3.27;;;17.80;50.70;;;;;;5033469;28;20458;-80
2021/12/26 12:01:48;;;;;;;4.50;3.10;;;18.00;50.70;;;;;;5034767;28;20454;-79
2021/12/26 12:04:18;;;;;;;4.10;3.10;;;18.10;50.60;;;;;;5036386;28;20474;-80
2021/12/26 12:06:47;;;;;;;3.10;2.83;;;18.20;50.60;;;;;;5039135;28;20543;-79
2021/12/26 12:09:26;;;;;;;3.50;2.67;;;18.30;50.70;;;;;;5038627;28;20495;-78
2021/12/26 12:12:08;;;;;;;4.73;3.27;;;18.40;50.40;;;;;;5038897;28;20523;-79
2021/12/26 12:15:01;;;;;;;3.10;2.80;;;18.60;50.30;;;;;;5038749;28;20558;-81
2021/12/26 12:17:35;;;;;;;3.67;3.03;;;18.70;50.30;;;;;;5028588;28;20477;-79
2021/12/26 12:20:11;;;;;;;3.43;2.87;;;18.80;50.10;;;;;;5038886;28;20960;-81
2021/12/26 12:22:40;;;;;;;6.17;2.67;;;18.90;50.10;;;;;;5038343;28;20466;-80
2021/12/26 12:25:40;;;;;;;3.70;3.07;;;19.00;49.90;;;;;;5037619;28;20475;-79
2021/12/26 12:28:09;;;;;;;3.33;3.03;;;19.10;49.70;;;;;;5038167;28;20447;-79
2021/12/26 12:30:38;;;;;;;3.10;2.90;;;19.10;49.20;;;;;;5038330;28;20485;-81
2021/12/26 12:33:16;;;;;;;3.17;2.87;;;19.30;49.50;;;;;;5038772;28;20522;-80
2021/12/26 12:35:53;;;;;;;3.00;2.80;;;19.40;49.40;;;;;;5038702;28;20443;-81
2021/12/26 12:38:23;;;;;;;4.63;2.63;;;19.40;49.80;;;;;;5034711;28;20467;-82
2021/12/26 12:40:53;;;;;;;2.97;2.77;;;19.50;48.70;;;;;;5037907;28;20794;-81
2021/12/26 12:43:22;;;;;;;3.30;3.00;;;19.60;48.90;;;;;;5037582;28;20450;-79
2021/12/26 12:46:09;;;;;;;2.90;2.70;;;19.60;48.70;;;;;;5037235;28;20471;-80
2021/12/26 12:48:40;;;;;;;3.50;2.93;;;19.70;48.70;;;;;;5037068;28;20467;-80
2021/12/26 12:51:31;;;;;;;3.77;3.00;;;19.80;48.60;;;;;;5038288;28;20455;-80
2021/12/26 12:53:59;;;;;;;3.43;2.70;;;19.80;48.20;;;;;;5036996;28;20533;-81
2021/12/26 12:56:44;;;;;;;3.13;2.87;;;19.80;48.20;;;;;;5038126;28;20466;-82
2021/12/26 12:59:52;;;;;;;3.33;3.03;;;19.90;48.10;;;;;;5038120;28;20470;-82
2021/12/26 13:02:41;;;;;;;7.70;3.23;;;20.00;48.10;;;;;;5029609;28;20823;-80
2021/12/26 13:05:09;;;;;;;8.83;3.30;;;20.00;48.00;;;;;;5018211;28;20492;-82
2021/12/26 13:07:37;;;;;;;9.90;3.50;;;19.90;46.90;;;;;;5017730;28;20500;-83
2021/12/26 13:10:10;;;;;;;19.77;4.00;;;19.20;38.20;;;;;;5032742;28;20546;-82